sensor_id;sensor_type;location;lat;lon;timestamp;P1;durP1;ratioP1;P2;durP2;ratioP2
32874;SDS011;40468;42.128;24.750;2022-12-07T00:00:44;31.48;;;14.27;;
32874;SDS011;40468;42.128;24.750;2022-12-07T00:02:15;42.42;;;16.17;;
32874;SDS011;40468;42.128;24.750;2022-12-07T00:03:47;38.33;;;15.00;;
32874;SDS011;40468;42.128;24.750;2022-12-07T00:05:20;35.65;;;14.27;;
32874;SDS011;40468;42.128;24.750;2022-12-07T00:06:53;32.90;;;14.05;;
32874;SDS011;40468;42.128;24.750;2022-12-07T00:08:25;36.08;;;12.95;;
32874;SDS011;40468;42.128;24.750;2022-12-07T00:09:56;31.33;;;12.73;;
32874;SDS011;40468;42.128;24.750;2022-12-07T00:11:28;27.35;;;11.15;;
32874;SDS011;40468;42.128;24.750;2022-12-07T00:12:59;39.50;;;18.60;;
32874;SDS011;40468;42.128;24.750;2022-12-07T00:14:31;41.72;;;21.90;;
32874;SDS011;40468;42.128;24.750;2022-12-07T00:16:04;36.72;;;18.85;;
32874;SDS011;40468;42.128;24.750;2022-12-07T00:17:38;45.13;;;20.38;;
32874;SDS011;40468;42.128;24.750;2022-12-07T00:19:10;33.17;;;14.38;;
32874;SDS011;40468;42.128;24.750;2022-12-07T00:20:42;30.88;;;12.55;;
32874;SDS011;40468;42.128;24.750;2022-12-07T00:22:16;34.95;;;12.40;;
32874;SDS011;40468;42.128;24.750;2022-12-07T00:23:48;27.48;;;10.88;;
32874;SDS011;40468;42.128;24.750;2022-12-07T00:25:21;27.60;;;11.52;;
32874;SDS011;40468;42.128;24.750;2022-12-07T00:26:53;29.25;;;12.50;;
32874;SDS011;40468;42.128;24.750;2022-12-07T00:28:24;34.38;;;11.45;;
32874;SDS011;40468;42.128;24.750;2022-12-07T00:29:56;27.42;;;11.40;;
32874;SDS011;40468;42.128;24.750;2022-12-07T00:31:29;27.77;;;11.30;;
32874;SDS011;40468;42.128;24.750;2022-12-07T00:33:03;22.02;;;10.90;;
32874;SDS011;40468;42.128;24.750;2022-12-07T00:34:35;25.92;;;11.45;;
32874;SDS011;40468;42.128;24.750;2022-12-07T00:36:07;29.27;;;11.15;;
32874;SDS011;40468;42.128;24.750;2022-12-07T00:37:41;25.30;;;10.73;;
32874;SDS011;40468;42.128;24.750;2022-12-07T00:39:13;30.75;;;12.02;;
32874;SDS011;40468;42.128;24.750;2022-12-07T00:40:53;25.05;;;10.68;;
32874;SDS011;40468;42.128;24.750;2022-12-07T00:42:25;25.38;;;10.45;;
32874;SDS011;40468;42.128;24.750;2022-12-07T00:43:57;24.25;;;10.45;;
32874;SDS011;40468;42.128;24.750;2022-12-07T00:45:29;25.38;;;10.35;;
32874;SDS011;40468;42.128;24.750;2022-12-07T00:47:01;25.05;;;9.52;;
32874;SDS011;40468;42.128;24.750;2022-12-07T00:48:33;24.15;;;9.52;;
32874;SDS011;40468;42.128;24.750;2022-12-07T00:50:05;23.48;;;10.40;;
32874;SDS011;40468;42.128;24.750;2022-12-07T00:51:38;22.27;;;9.68;;
32874;SDS011;40468;42.128;24.750;2022-12-07T00:53:11;28.20;;;9.38;;
32874;SDS011;40468;42.128;24.750;2022-12-07T00:54:42;22.98;;;9.70;;
32874;SDS011;40468;42.128;24.750;2022-12-07T00:56:15;22.48;;;10.07;;
32874;SDS011;40468;42.128;24.750;2022-12-07T00:57:48;24.10;;;9.10;;
32874;SDS011;40468;42.128;24.750;2022-12-07T00:59:20;21.40;;;9.05;;
32874;SDS011;40468;42.128;24.750;2022-12-07T01:00:51;25.92;;;9.35;;
32874;SDS011;40468;42.128;24.750;2022-12-07T01:02:23;27.63;;;9.45;;
32874;SDS011;40468;42.128;24.750;2022-12-07T01:03:55;25.75;;;9.73;;
32874;SDS011;40468;42.128;24.750;2022-12-07T01:05:27;18.85;;;8.63;;
32874;SDS011;40468;42.128;24.750;2022-12-07T01:06:59;31.33;;;10.13;;
32874;SDS011;40468;42.128;24.750;2022-12-07T01:08:32;28.38;;;9.30;;
32874;SDS011;40468;42.128;24.750;2022-12-07T01:10:04;21.45;;;8.63;;
32874;SDS011;40468;42.128;24.750;2022-12-07T01:11:37;28.48;;;9.77;;
32874;SDS011;40468;42.128;24.750;2022-12-07T01:13:09;26.33;;;9.98;;
32874;SDS011;40468;42.128;24.750;2022-12-07T01:14:41;36.72;;;11.00;;
32874;SDS011;40468;42.128;24.750;2022-12-07T01:16:13;23.50;;;10.20;;
32874;SDS011;40468;42.128;24.750;2022-12-07T01:17:45;24.95;;;10.57;;
32874;SDS011;40468;42.128;24.750;2022-12-07T01:19:17;25.38;;;9.05;;
32874;SDS011;40468;42.128;24.750;2022-12-07T01:20:56;28.35;;;10.70;;
32874;SDS011;40468;42.128;24.750;2022-12-07T01:22:28;26.25;;;11.07;;
32874;SDS011;40468;42.128;24.750;2022-12-07T01:24:01;26.83;;;10.80;;
32874;SDS011;40468;42.128;24.750;2022-12-07T01:25:33;28.52;;;10.70;;
32874;SDS011;40468;42.128;24.750;2022-12-07T01:27:05;25.30;;;10.82;;
32874;SDS011;40468;42.128;24.750;2022-12-07T01:28:37;25.85;;;10.73;;
32874;SDS011;40468;42.128;24.750;2022-12-07T01:30:09;32.10;;;10.73;;
32874;SDS011;40468;42.128;24.750;2022-12-07T01:31:42;31.73;;;10.27;;
32874;SDS011;40468;42.128;24.750;2022-12-07T01:33:14;26.13;;;9.85;;
32874;SDS011;40468;42.128;24.750;2022-12-07T01:34:47;26.05;;;10.05;;
32874;SDS011;40468;42.128;24.750;2022-12-07T01:36:19;23.08;;;10.15;;
32874;SDS011;40468;42.128;24.750;2022-12-07T01:37:53;29.35;;;10.60;;
32874;SDS011;40468;42.128;24.750;2022-12-07T01:39:26;31.67;;;11.10;;
32874;SDS011;40468;42.128;24.750;2022-12-07T01:40:58;30.13;;;11.40;;
32874;SDS011;40468;42.128;24.750;2022-12-07T01:42:30;26.17;;;11.40;;
32874;SDS011;40468;42.128;24.750;2022-12-07T01:45:53;32.38;;;11.52;;
32874;SDS011;40468;42.128;24.750;2022-12-07T01:47:24;34.63;;;11.98;;
32874;SDS011;40468;42.128;24.750;2022-12-07T01:48:56;32.95;;;12.73;;
32874;SDS011;40468;42.128;24.750;2022-12-07T01:50:28;29.90;;;12.57;;
32874;SDS011;40468;42.128;24.750;2022-12-07T01:52:09;27.23;;;11.48;;
32874;SDS011;40468;42.128;24.750;2022-12-07T01:55:18;44.75;;;13.27;;
32874;SDS011;40468;42.128;24.750;2022-12-07T01:56:50;49.67;;;15.35;;
32874;SDS011;40468;42.128;24.750;2022-12-07T01:58:24;41.55;;;15.60;;
32874;SDS011;40468;42.128;24.750;2022-12-07T01:59:57;43.80;;;15.13;;
32874;SDS011;40468;42.128;24.750;2022-12-07T02:01:29;48.53;;;16.90;;
32874;SDS011;40468;42.128;24.750;2022-12-07T02:03:03;52.83;;;17.58;;
32874;SDS011;40468;42.128;24.750;2022-12-07T02:04:37;41.35;;;15.60;;
32874;SDS011;40468;42.128;24.750;2022-12-07T02:06:10;40.50;;;14.73;;
32874;SDS011;40468;42.128;24.750;2022-12-07T02:07:44;40.67;;;15.18;;
32874;SDS011;40468;42.128;24.750;2022-12-07T02:09:18;39.85;;;14.20;;
32874;SDS011;40468;42.128;24.750;2022-12-07T02:10:52;42.80;;;14.38;;
32874;SDS011;40468;42.128;24.750;2022-12-07T02:12:24;45.33;;;15.30;;
32874;SDS011;40468;42.128;24.750;2022-12-07T02:13:56;43.17;;;15.33;;
32874;SDS011;40468;42.128;24.750;2022-12-07T02:15:29;38.33;;;13.63;;
32874;SDS011;40468;42.128;24.750;2022-12-07T02:17:11;43.35;;;13.90;;
32874;SDS011;40468;42.128;24.750;2022-12-07T02:18:55;42.95;;;14.10;;
32874;SDS011;40468;42.128;24.750;2022-12-07T02:20:40;44.42;;;14.52;;
32874;SDS011;40468;42.128;24.750;2022-12-07T02:22:26;33.47;;;13.07;;
32874;SDS011;40468;42.128;24.750;2022-12-07T02:24:37;40.88;;;14.63;;
32874;SDS011;40468;42.128;24.750;2022-12-07T02:26:39;33.85;;;13.02;;
32874;SDS011;40468;42.128;24.750;2022-12-07T02:28:22;29.75;;;11.20;;
32874;SDS011;40468;42.128;24.750;2022-12-07T02:30:01;26.63;;;10.40;;
32874;SDS011;40468;42.128;24.750;2022-12-07T02:31:36;33.08;;;10.80;;
32874;SDS011;40468;42.128;24.750;2022-12-07T02:33:14;23.58;;;10.02;;
32874;SDS011;40468;42.128;24.750;2022-12-07T02:34:50;23.67;;;9.20;;
32874;SDS011;40468;42.128;24.750;2022-12-07T02:36:34;24.30;;;9.80;;
32874;SDS011;40468;42.128;24.750;2022-12-07T02:38:12;24.92;;;10.18;;
32874;SDS011;40468;42.128;24.750;2022-12-07T02:39:48;22.80;;;8.50;;
32874;SDS011;40468;42.128;24.750;2022-12-07T02:41:24;21.88;;;8.55;;
32874;SDS011;40468;42.128;24.750;2022-12-07T02:43:02;20.63;;;8.65;;
32874;SDS011;40468;42.128;24.750;2022-12-07T02:44:39;24.55;;;8.40;;
32874;SDS011;40468;42.128;24.750;2022-12-07T02:46:12;23.02;;;8.55;;
32874;SDS011;40468;42.128;24.750;2022-12-07T02:47:48;23.70;;;8.27;;
32874;SDS011;40468;42.128;24.750;2022-12-07T02:49:23;20.52;;;7.72;;
32874;SDS011;40468;42.128;24.750;2022-12-07T02:50:58;19.85;;;8.77;;
32874;SDS011;40468;42.128;24.750;2022-12-07T02:52:29;19.13;;;8.82;;
32874;SDS011;40468;42.128;24.750;2022-12-07T02:54:01;20.75;;;8.55;;
32874;SDS011;40468;42.128;24.750;2022-12-07T02:55:34;22.20;;;8.65;;
32874;SDS011;40468;42.128;24.750;2022-12-07T02:57:21;20.67;;;8.38;;
32874;SDS011;40468;42.128;24.750;2022-12-07T02:59:10;22.70;;;8.57;;
32874;SDS011;40468;42.128;24.750;2022-12-07T03:00:51;20.58;;;8.23;;
32874;SDS011;40468;42.128;24.750;2022-12-07T03:02:35;21.10;;;8.88;;
32874;SDS011;40468;42.128;24.750;2022-12-07T03:04:16;23.25;;;8.15;;
32874;SDS011;40468;42.128;24.750;2022-12-07T03:06:10;18.90;;;8.48;;
32874;SDS011;40468;42.128;24.750;2022-12-07T03:07:54;21.48;;;8.40;;
32874;SDS011;40468;42.128;24.750;2022-12-07T03:09:32;22.13;;;9.00;;
32874;SDS011;40468;42.128;24.750;2022-12-07T03:11:09;18.40;;;8.13;;
32874;SDS011;40468;42.128;24.750;2022-12-07T03:12:47;21.20;;;8.68;;
32874;SDS011;40468;42.128;24.750;2022-12-07T03:14:29;22.88;;;8.27;;
32874;SDS011;40468;42.128;24.750;2022-12-07T03:16:05;15.63;;;7.63;;
32874;SDS011;40468;42.128;24.750;2022-12-07T03:17:45;20.92;;;9.40;;
32874;SDS011;40468;42.128;24.750;2022-12-07T03:19:19;23.65;;;9.48;;
32874;SDS011;40468;42.128;24.750;2022-12-07T03:20:55;25.25;;;8.50;;
32874;SDS011;40468;42.128;24.750;2022-12-07T03:22:35;25.15;;;9.35;;
32874;SDS011;40468;42.128;24.750;2022-12-07T03:24:12;27.63;;;9.35;;
32874;SDS011;40468;42.128;24.750;2022-12-07T03:25:47;23.92;;;9.98;;
32874;SDS011;40468;42.128;24.750;2022-12-07T03:27:25;20.85;;;9.88;;
32874;SDS011;40468;42.128;24.750;2022-12-07T03:29:03;25.42;;;9.65;;
32874;SDS011;40468;42.128;24.750;2022-12-07T03:30:41;21.75;;;9.75;;
32874;SDS011;40468;42.128;24.750;2022-12-07T03:32:16;24.42;;;9.70;;
32874;SDS011;40468;42.128;24.750;2022-12-07T03:33:58;25.35;;;11.13;;
32874;SDS011;40468;42.128;24.750;2022-12-07T03:35:38;24.45;;;9.32;;
32874;SDS011;40468;42.128;24.750;2022-12-07T03:37:12;27.15;;;10.10;;
32874;SDS011;40468;42.128;24.750;2022-12-07T03:38:50;21.55;;;9.48;;
32874;SDS011;40468;42.128;24.750;2022-12-07T03:40:29;20.17;;;9.07;;
32874;SDS011;40468;42.128;24.750;2022-12-07T03:42:05;30.85;;;10.40;;
32874;SDS011;40468;42.128;24.750;2022-12-07T03:43:40;21.67;;;9.25;;
32874;SDS011;40468;42.128;24.750;2022-12-07T03:45:13;25.13;;;9.23;;
32874;SDS011;40468;42.128;24.750;2022-12-07T03:46:48;23.10;;;9.75;;
32874;SDS011;40468;42.128;24.750;2022-12-07T03:48:25;23.50;;;10.15;;
32874;SDS011;40468;42.128;24.750;2022-12-07T03:50:05;27.48;;;10.65;;
32874;SDS011;40468;42.128;24.750;2022-12-07T03:51:43;24.45;;;10.02;;
32874;SDS011;40468;42.128;24.750;2022-12-07T03:53:22;27.50;;;9.18;;
32874;SDS011;40468;42.128;24.750;2022-12-07T03:55:00;25.83;;;9.85;;
32874;SDS011;40468;42.128;24.750;2022-12-07T03:56:37;25.58;;;9.73;;
32874;SDS011;40468;42.128;24.750;2022-12-07T03:58:12;20.98;;;9.43;;
32874;SDS011;40468;42.128;24.750;2022-12-07T03:59:47;22.52;;;9.88;;
32874;SDS011;40468;42.128;24.750;2022-12-07T04:01:19;22.27;;;9.13;;
32874;SDS011;40468;42.128;24.750;2022-12-07T04:02:50;23.25;;;9.40;;
32874;SDS011;40468;42.128;24.750;2022-12-07T04:04:23;26.60;;;10.55;;
32874;SDS011;40468;42.128;24.750;2022-12-07T04:05:57;27.58;;;9.85;;
32874;SDS011;40468;42.128;24.750;2022-12-07T04:07:30;28.52;;;9.70;;
32874;SDS011;40468;42.128;24.750;2022-12-07T04:09:01;28.42;;;10.88;;
32874;SDS011;40468;42.128;24.750;2022-12-07T04:10:33;25.00;;;10.20;;
32874;SDS011;40468;42.128;24.750;2022-12-07T04:12:05;25.38;;;10.15;;
32874;SDS011;40468;42.128;24.750;2022-12-07T04:13:37;21.63;;;9.20;;
32874;SDS011;40468;42.128;24.750;2022-12-07T04:15:22;25.05;;;10.25;;
32874;SDS011;40468;42.128;24.750;2022-12-07T04:16:55;24.27;;;9.50;;
32874;SDS011;40468;42.128;24.750;2022-12-07T04:18:28;18.65;;;9.10;;
32874;SDS011;40468;42.128;24.750;2022-12-07T04:20:00;24.90;;;9.32;;
32874;SDS011;40468;42.128;24.750;2022-12-07T04:21:33;24.83;;;11.20;;
32874;SDS011;40468;42.128;24.750;2022-12-07T04:23:04;25.08;;;9.80;;
32874;SDS011;40468;42.128;24.750;2022-12-07T04:24:36;25.02;;;9.55;;
32874;SDS011;40468;42.128;24.750;2022-12-07T04:26:08;23.10;;;9.57;;
32874;SDS011;40468;42.128;24.750;2022-12-07T04:27:40;21.88;;;9.88;;
32874;SDS011;40468;42.128;24.750;2022-12-07T04:29:12;22.15;;;9.73;;
32874;SDS011;40468;42.128;24.750;2022-12-07T04:30:45;25.20;;;10.25;;
32874;SDS011;40468;42.128;24.750;2022-12-07T04:32:17;24.67;;;10.25;;
32874;SDS011;40468;42.128;24.750;2022-12-07T04:33:49;25.00;;;9.50;;
32874;SDS011;40468;42.128;24.750;2022-12-07T04:35:20;24.92;;;10.23;;
32874;SDS011;40468;42.128;24.750;2022-12-07T04:36:53;22.42;;;9.98;;
32874;SDS011;40468;42.128;24.750;2022-12-07T04:38:24;24.70;;;10.65;;
32874;SDS011;40468;42.128;24.750;2022-12-07T04:39:56;23.90;;;10.52;;
32874;SDS011;40468;42.128;24.750;2022-12-07T04:41:28;29.10;;;10.73;;
32874;SDS011;40468;42.128;24.750;2022-12-07T04:42:58;27.35;;;9.65;;
32874;SDS011;40468;42.128;24.750;2022-12-07T04:44:30;24.63;;;10.35;;
32874;SDS011;40468;42.128;24.750;2022-12-07T04:46:01;29.63;;;10.52;;
32874;SDS011;40468;42.128;24.750;2022-12-07T04:47:33;29.10;;;9.63;;
32874;SDS011;40468;42.128;24.750;2022-12-07T04:49:05;24.45;;;10.50;;
32874;SDS011;40468;42.128;24.750;2022-12-07T04:50:36;21.90;;;10.23;;
32874;SDS011;40468;42.128;24.750;2022-12-07T04:52:10;22.98;;;10.50;;
32874;SDS011;40468;42.128;24.750;2022-12-07T04:53:42;33.53;;;14.00;;
32874;SDS011;40468;42.128;24.750;2022-12-07T04:55:12;34.13;;;14.43;;
32874;SDS011;40468;42.128;24.750;2022-12-07T04:56:44;28.15;;;11.00;;
32874;SDS011;40468;42.128;24.750;2022-12-07T04:58:16;28.67;;;10.88;;
32874;SDS011;40468;42.128;24.750;2022-12-07T04:59:48;27.20;;;11.20;;
32874;SDS011;40468;42.128;24.750;2022-12-07T05:01:20;30.88;;;12.77;;
32874;SDS011;40468;42.128;24.750;2022-12-07T05:02:53;25.85;;;11.32;;
32874;SDS011;40468;42.128;24.750;2022-12-07T05:04:25;30.42;;;12.45;;
32874;SDS011;40468;42.128;24.750;2022-12-07T05:05:57;27.30;;;11.23;;
32874;SDS011;40468;42.128;24.750;2022-12-07T05:07:30;25.48;;;11.23;;
32874;SDS011;40468;42.128;24.750;2022-12-07T05:09:02;27.98;;;10.57;;
32874;SDS011;40468;42.128;24.750;2022-12-07T05:10:35;30.15;;;11.32;;
32874;SDS011;40468;42.128;24.750;2022-12-07T05:12:07;27.55;;;11.35;;
32874;SDS011;40468;42.128;24.750;2022-12-07T05:13:38;30.05;;;11.10;;
32874;SDS011;40468;42.128;24.750;2022-12-07T05:15:09;28.02;;;10.27;;
32874;SDS011;40468;42.128;24.750;2022-12-07T05:16:41;26.95;;;10.90;;
32874;SDS011;40468;42.128;24.750;2022-12-07T05:18:14;34.47;;;13.98;;
32874;SDS011;40468;42.128;24.750;2022-12-07T05:19:47;36.33;;;11.73;;
32874;SDS011;40468;42.128;24.750;2022-12-07T05:21:18;27.98;;;11.73;;
32874;SDS011;40468;42.128;24.750;2022-12-07T05:22:52;27.45;;;12.32;;
32874;SDS011;40468;42.128;24.750;2022-12-07T05:24:23;31.05;;;12.02;;
32874;SDS011;40468;42.128;24.750;2022-12-07T05:25:55;28.42;;;11.23;;
32874;SDS011;40468;42.128;24.750;2022-12-07T05:27:29;33.00;;;11.90;;
32874;SDS011;40468;42.128;24.750;2022-12-07T05:29:01;30.60;;;12.10;;
32874;SDS011;40468;42.128;24.750;2022-12-07T05:30:33;27.52;;;11.10;;
32874;SDS011;40468;42.128;24.750;2022-12-07T05:32:05;32.13;;;12.50;;
32874;SDS011;40468;42.128;24.750;2022-12-07T05:33:36;35.10;;;12.70;;
32874;SDS011;40468;42.128;24.750;2022-12-07T05:35:09;33.72;;;12.73;;
32874;SDS011;40468;42.128;24.750;2022-12-07T05:36:41;28.85;;;12.05;;
32874;SDS011;40468;42.128;24.750;2022-12-07T05:38:14;35.58;;;13.23;;
32874;SDS011;40468;42.128;24.750;2022-12-07T05:39:46;32.28;;;12.85;;
32874;SDS011;40468;42.128;24.750;2022-12-07T05:41:18;30.85;;;12.13;;
32874;SDS011;40468;42.128;24.750;2022-12-07T05:43:07;27.73;;;12.50;;
32874;SDS011;40468;42.128;24.750;2022-12-07T05:44:39;33.80;;;13.20;;
32874;SDS011;40468;42.128;24.750;2022-12-07T05:46:10;39.05;;;13.02;;
32874;SDS011;40468;42.128;24.750;2022-12-07T05:47:41;31.02;;;11.60;;
32874;SDS011;40468;42.128;24.750;2022-12-07T05:49:13;32.28;;;13.35;;
32874;SDS011;40468;42.128;24.750;2022-12-07T05:50:47;32.30;;;12.70;;
32874;SDS011;40468;42.128;24.750;2022-12-07T05:52:19;29.23;;;12.45;;
32874;SDS011;40468;42.128;24.750;2022-12-07T05:53:52;39.45;;;13.98;;
32874;SDS011;40468;42.128;24.750;2022-12-07T05:55:23;34.05;;;13.35;;
32874;SDS011;40468;42.128;24.750;2022-12-07T05:56:55;32.38;;;12.98;;
32874;SDS011;40468;42.128;24.750;2022-12-07T05:58:27;39.17;;;13.68;;
32874;SDS011;40468;42.128;24.750;2022-12-07T06:00:16;39.85;;;13.32;;
32874;SDS011;40468;42.128;24.750;2022-12-07T06:01:48;45.22;;;16.50;;
32874;SDS011;40468;42.128;24.750;2022-12-07T06:03:20;47.67;;;19.50;;
32874;SDS011;40468;42.128;24.750;2022-12-07T06:04:52;38.28;;;15.88;;
32874;SDS011;40468;42.128;24.750;2022-12-07T06:06:24;48.42;;;17.40;;
32874;SDS011;40468;42.128;24.750;2022-12-07T06:07:55;50.45;;;16.92;;
32874;SDS011;40468;42.128;24.750;2022-12-07T06:09:28;46.05;;;17.35;;
32874;SDS011;40468;42.128;24.750;2022-12-07T06:11:00;46.60;;;17.10;;
32874;SDS011;40468;42.128;24.750;2022-12-07T06:12:49;45.33;;;16.98;;
32874;SDS011;40468;42.128;24.750;2022-12-07T06:14:21;43.58;;;18.13;;
32874;SDS011;40468;42.128;24.750;2022-12-07T06:15:52;39.22;;;17.17;;
32874;SDS011;40468;42.128;24.750;2022-12-07T06:17:24;42.47;;;17.48;;
32874;SDS011;40468;42.128;24.750;2022-12-07T06:18:56;42.75;;;17.17;;
32874;SDS011;40468;42.128;24.750;2022-12-07T06:20:28;52.70;;;18.63;;
32874;SDS011;40468;42.128;24.750;2022-12-07T06:22:00;34.95;;;15.52;;
32874;SDS011;40468;42.128;24.750;2022-12-07T06:23:32;39.45;;;15.55;;
32874;SDS011;40468;42.128;24.750;2022-12-07T06:25:06;41.58;;;16.35;;
32874;SDS011;40468;42.128;24.750;2022-12-07T06:26:39;37.22;;;15.35;;
32874;SDS011;40468;42.128;24.750;2022-12-07T06:28:11;46.33;;;16.88;;
32874;SDS011;40468;42.128;24.750;2022-12-07T06:29:42;36.25;;;16.50;;
32874;SDS011;40468;42.128;24.750;2022-12-07T06:31:14;35.17;;;14.85;;
32874;SDS011;40468;42.128;24.750;2022-12-07T06:32:46;45.20;;;16.17;;
32874;SDS011;40468;42.128;24.750;2022-12-07T06:34:19;38.83;;;14.98;;
32874;SDS011;40468;42.128;24.750;2022-12-07T06:35:53;39.03;;;15.25;;
32874;SDS011;40468;42.128;24.750;2022-12-07T06:37:25;36.63;;;17.35;;
32874;SDS011;40468;42.128;24.750;2022-12-07T06:38:57;46.20;;;15.68;;
32874;SDS011;40468;42.128;24.750;2022-12-07T06:40:30;48.08;;;15.75;;
32874;SDS011;40468;42.128;24.750;2022-12-07T06:42:02;45.95;;;17.42;;
32874;SDS011;40468;42.128;24.750;2022-12-07T06:43:34;38.28;;;16.05;;
32874;SDS011;40468;42.128;24.750;2022-12-07T06:45:06;45.17;;;16.98;;
32874;SDS011;40468;42.128;24.750;2022-12-07T06:46:38;42.28;;;17.52;;
32874;SDS011;40468;42.128;24.750;2022-12-07T06:48:10;37.92;;;16.80;;
32874;SDS011;40468;42.128;24.750;2022-12-07T06:49:42;45.60;;;16.25;;
32874;SDS011;40468;42.128;24.750;2022-12-07T06:51:14;38.92;;;17.17;;
32874;SDS011;40468;42.128;24.750;2022-12-07T06:52:46;43.50;;;17.05;;
32874;SDS011;40468;42.128;24.750;2022-12-07T06:54:18;60.00;;;19.08;;
32874;SDS011;40468;42.128;24.750;2022-12-07T06:55:51;56.88;;;25.70;;
32874;SDS011;40468;42.128;24.750;2022-12-07T06:57:23;75.32;;;33.20;;
32874;SDS011;40468;42.128;24.750;2022-12-07T06:58:55;66.47;;;28.25;;
32874;SDS011;40468;42.128;24.750;2022-12-07T07:00:27;124.35;;;56.47;;
32874;SDS011;40468;42.128;24.750;2022-12-07T07:01:59;100.00;;;41.75;;
32874;SDS011;40468;42.128;24.750;2022-12-07T07:03:31;42.63;;;18.65;;
32874;SDS011;40468;42.128;24.750;2022-12-07T07:05:03;70.13;;;28.05;;
32874;SDS011;40468;42.128;24.750;2022-12-07T07:06:35;42.60;;;17.42;;
32874;SDS011;40468;42.128;24.750;2022-12-07T07:08:07;38.05;;;16.02;;
32874;SDS011;40468;42.128;24.750;2022-12-07T07:09:39;46.38;;;17.40;;
32874;SDS011;40468;42.128;24.750;2022-12-07T07:11:13;300.63;;;122.55;;
32874;SDS011;40468;42.128;24.750;2022-12-07T07:12:44;152.50;;;68.22;;
32874;SDS011;40468;42.128;24.750;2022-12-07T07:14:16;75.50;;;30.90;;
32874;SDS011;40468;42.128;24.750;2022-12-07T07:15:49;112.40;;;42.15;;
32874;SDS011;40468;42.128;24.750;2022-12-07T07:17:21;66.75;;;24.13;;
32874;SDS011;40468;42.128;24.750;2022-12-07T07:18:53;79.78;;;24.38;;
32874;SDS011;40468;42.128;24.750;2022-12-07T07:20:25;65.60;;;22.80;;
32874;SDS011;40468;42.128;24.750;2022-12-07T07:21:57;60.65;;;19.52;;
32874;SDS011;40468;42.128;24.750;2022-12-07T07:23:29;55.42;;;20.00;;
32874;SDS011;40468;42.128;24.750;2022-12-07T07:25:02;84.40;;;20.48;;
32874;SDS011;40468;42.128;24.750;2022-12-07T07:26:35;59.38;;;19.40;;
32874;SDS011;40468;42.128;24.750;2022-12-07T07:28:07;88.78;;;26.65;;
32874;SDS011;40468;42.128;24.750;2022-12-07T07:29:39;63.95;;;19.80;;
32874;SDS011;40468;42.128;24.750;2022-12-07T07:31:11;57.78;;;20.88;;
32874;SDS011;40468;42.128;24.750;2022-12-07T07:32:43;45.28;;;18.27;;
32874;SDS011;40468;42.128;24.750;2022-12-07T07:34:14;46.28;;;18.77;;
32874;SDS011;40468;42.128;24.750;2022-12-07T07:35:46;45.63;;;15.80;;
32874;SDS011;40468;42.128;24.750;2022-12-07T07:37:18;40.80;;;15.02;;
32874;SDS011;40468;42.128;24.750;2022-12-07T07:38:50;47.47;;;16.10;;
32874;SDS011;40468;42.128;24.750;2022-12-07T07:40:23;36.05;;;15.48;;
32874;SDS011;40468;42.128;24.750;2022-12-07T07:41:57;35.03;;;15.27;;
32874;SDS011;40468;42.128;24.750;2022-12-07T07:45:00;44.25;;;16.67;;
32874;SDS011;40468;42.128;24.750;2022-12-07T07:46:32;56.72;;;17.50;;
32874;SDS011;40468;42.128;24.750;2022-12-07T07:48:04;55.90;;;19.25;;
32874;SDS011;40468;42.128;24.750;2022-12-07T07:49:36;56.83;;;18.83;;
32874;SDS011;40468;42.128;24.750;2022-12-07T07:51:08;52.45;;;18.45;;
32874;SDS011;40468;42.128;24.750;2022-12-07T07:52:40;49.10;;;19.08;;
32874;SDS011;40468;42.128;24.750;2022-12-07T07:54:12;63.28;;;20.35;;
32874;SDS011;40468;42.128;24.750;2022-12-07T07:55:49;49.95;;;19.90;;
32874;SDS011;40468;42.128;24.750;2022-12-07T07:57:23;58.85;;;19.20;;
32874;SDS011;40468;42.128;24.750;2022-12-07T07:58:55;53.60;;;20.83;;
32874;SDS011;40468;42.128;24.750;2022-12-07T08:00:27;59.92;;;21.58;;
32874;SDS011;40468;42.128;24.750;2022-12-07T08:01:59;52.38;;;19.77;;
32874;SDS011;40468;42.128;24.750;2022-12-07T08:03:31;51.20;;;18.95;;
32874;SDS011;40468;42.128;24.750;2022-12-07T08:05:03;57.50;;;19.92;;
32874;SDS011;40468;42.128;24.750;2022-12-07T08:06:35;41.50;;;17.90;;
32874;SDS011;40468;42.128;24.750;2022-12-07T08:08:07;47.05;;;18.58;;
32874;SDS011;40468;42.128;24.750;2022-12-07T08:09:39;45.47;;;18.48;;
32874;SDS011;40468;42.128;24.750;2022-12-07T08:11:11;49.80;;;18.35;;
32874;SDS011;40468;42.128;24.750;2022-12-07T08:12:44;38.53;;;16.73;;
32874;SDS011;40468;42.128;24.750;2022-12-07T08:14:34;50.10;;;18.05;;
32874;SDS011;40468;42.128;24.750;2022-12-07T08:16:06;44.17;;;18.73;;
32874;SDS011;40468;42.128;24.750;2022-12-07T08:17:39;40.33;;;17.20;;
32874;SDS011;40468;42.128;24.750;2022-12-07T08:19:11;40.25;;;17.45;;
32874;SDS011;40468;42.128;24.750;2022-12-07T08:20:43;40.45;;;17.95;;
32874;SDS011;40468;42.128;24.750;2022-12-07T08:22:15;42.25;;;14.80;;
32874;SDS011;40468;42.128;24.750;2022-12-07T08:23:47;36.58;;;15.38;;
32874;SDS011;40468;42.128;24.750;2022-12-07T08:25:19;34.88;;;16.08;;
32874;SDS011;40468;42.128;24.750;2022-12-07T08:26:52;39.40;;;15.43;;
32874;SDS011;40468;42.128;24.750;2022-12-07T08:28:25;38.30;;;14.55;;
32874;SDS011;40468;42.128;24.750;2022-12-07T08:29:57;39.15;;;17.08;;
32874;SDS011;40468;42.128;24.750;2022-12-07T08:31:29;46.55;;;17.10;;
32874;SDS011;40468;42.128;24.750;2022-12-07T08:33:05;56.40;;;20.25;;
32874;SDS011;40468;42.128;24.750;2022-12-07T08:34:37;40.13;;;16.70;;
32874;SDS011;40468;42.128;24.750;2022-12-07T08:36:09;33.20;;;15.80;;
32874;SDS011;40468;42.128;24.750;2022-12-07T08:37:42;35.85;;;16.00;;
32874;SDS011;40468;42.128;24.750;2022-12-07T08:39:14;31.27;;;15.45;;
32874;SDS011;40468;42.128;24.750;2022-12-07T08:40:52;35.50;;;15.70;;
32874;SDS011;40468;42.128;24.750;2022-12-07T08:42:25;35.60;;;16.05;;
32874;SDS011;40468;42.128;24.750;2022-12-07T08:44:01;38.03;;;18.75;;
32874;SDS011;40468;42.128;24.750;2022-12-07T08:47:05;37.38;;;18.52;;
32874;SDS011;40468;42.128;24.750;2022-12-07T08:48:40;37.88;;;17.08;;
32874;SDS011;40468;42.128;24.750;2022-12-07T08:50:16;38.45;;;18.27;;
32874;SDS011;40468;42.128;24.750;2022-12-07T08:51:48;44.45;;;18.75;;
32874;SDS011;40468;42.128;24.750;2022-12-07T08:53:21;37.25;;;17.83;;
32874;SDS011;40468;42.128;24.750;2022-12-07T08:54:53;41.97;;;17.92;;
32874;SDS011;40468;42.128;24.750;2022-12-07T08:56:25;39.97;;;18.08;;
32874;SDS011;40468;42.128;24.750;2022-12-07T08:57:58;41.73;;;20.80;;
32874;SDS011;40468;42.128;24.750;2022-12-07T08:59:31;42.47;;;20.10;;
32874;SDS011;40468;42.128;24.750;2022-12-07T09:01:06;37.63;;;18.77;;
32874;SDS011;40468;42.128;24.750;2022-12-07T09:02:37;39.88;;;17.65;;
32874;SDS011;40468;42.128;24.750;2022-12-07T09:04:10;41.42;;;19.17;;
32874;SDS011;40468;42.128;24.750;2022-12-07T09:05:42;48.22;;;23.67;;
32874;SDS011;40468;42.128;24.750;2022-12-07T09:07:15;57.47;;;30.15;;
32874;SDS011;40468;42.128;24.750;2022-12-07T09:08:50;62.95;;;33.65;;